Time;durP1;ratioP1;P1;durP2;ratioP2;P2;SDS_P1;SDS_P2;PMS_P1;PMS_P2;Temp;Humidity;BMP_temperature;BMP_pressure;BME280_temperature;BME280_humidity;BME280_pressure;Samples;Min_cycle;Max_cycle;Signal;HPM_P1;HPM_P2
2023/06/09 00:01:37;;;;;;;17.17;7.30;;;16.10;99.90;;;;;;5035249;28;20412;-76
2023/06/09 00:04:06;;;;;;;15.03;7.00;;;16.10;99.90;;;;;;5034028;28;20418;-76
2023/06/09 00:06:35;;;;;;;15.03;6.80;;;16.00;99.90;;;;;;5035332;28;20837;-76
2023/06/09 00:09:06;;;;;;;17.20;7.47;;;16.00;99.90;;;;;;5033858;28;20425;-76
2023/06/09 00:11:34;;;;;;;11.97;7.87;;;16.00;99.90;;;;;;5035571;28;20897;-73
2023/06/09 00:14:03;;;;;;;14.33;7.67;;;16.00;99.90;;;;;;5035019;28;20477;-74
2023/06/09 00:16:32;;;;;;;13.07;7.20;;;16.00;99.90;;;;;;5034713;28;20874;-73
2023/06/09 00:19:03;;;;;;;13.37;7.40;;;15.90;99.90;;;;;;5033360;28;20458;-73
2023/06/09 00:21:31;;;;;;;14.63;7.00;;;15.90;99.90;;;;;;5033374;28;20443;-73
2023/06/09 00:23:59;;;;;;;11.47;6.80;;;15.90;99.90;;;;;;5033291;28;20416;-73
2023/06/09 00:26:29;;;;;;;13.47;7.17;;;15.80;99.90;;;;;;5034439;28;20426;-73
2023/06/09 00:28:57;;;;;;;11.80;7.60;;;15.80;99.90;;;;;;5034384;28;20505;-73
2023/06/09 00:31:26;;;;;;;13.63;7.60;;;15.80;99.90;;;;;;5033201;28;20410;-73
2023/06/09 00:33:55;;;;;;;10.97;7.03;;;15.70;99.90;;;;;;5034295;28;20815;-73
2023/06/09 00:36:23;;;;;;;14.50;8.00;;;15.70;99.90;;;;;;5033061;28;20790;-73
2023/06/09 00:38:51;;;;;;;11.73;6.43;;;15.70;99.90;;;;;;5033209;28;20430;-74
2023/06/09 00:41:20;;;;;;;13.83;7.53;;;15.70;99.90;;;;;;5033185;28;20417;-75
2023/06/09 00:43:50;;;;;;;11.63;7.20;;;15.70;99.90;;;;;;5033118;28;20469;-75
2023/06/09 00:46:19;;;;;;;11.07;7.10;;;15.70;99.90;;;;;;5033026;28;20476;-73
2023/06/09 00:48:47;;;;;;;14.10;7.60;;;15.60;99.90;;;;;;5032732;28;20484;-73
2023/06/09 00:51:16;;;;;;;13.83;7.90;;;15.60;99.90;;;;;;5032661;28;20422;-73
2023/06/09 00:53:44;;;;;;;13.13;7.63;;;15.60;99.90;;;;;;5032544;28;21036;-73
2023/06/09 00:56:13;;;;;;;16.37;7.67;;;15.60;99.90;;;;;;5034085;28;20410;-73
2023/06/09 00:58:41;;;;;;;12.93;6.67;;;15.60;99.90;;;;;;5032619;28;20449;-73
2023/06/09 01:01:11;;;;;;;11.37;7.50;;;15.50;99.90;;;;;;5033814;28;20929;-73
2023/06/09 01:03:39;;;;;;;15.47;7.30;;;15.50;99.90;;;;;;5033879;28;20416;-73
2023/06/09 01:06:14;;;;;;;10.60;6.93;;;15.50;99.90;;;;;;5032349;28;20438;-73
2023/06/09 01:08:48;;;;;;;15.03;7.73;;;15.50;99.90;;;;;;5033707;28;20502;-73
2023/06/09 01:11:30;;;;;;;14.17;8.00;;;15.40;99.90;;;;;;5033253;28;20484;-72
2023/06/09 01:14:06;;;;;;;14.23;8.27;;;15.40;99.90;;;;;;5032346;28;20458;-73
2023/06/09 01:16:41;;;;;;;11.43;7.00;;;15.40;99.90;;;;;;5032237;28;20964;-72
2023/06/09 01:19:20;;;;;;;14.30;7.30;;;15.40;99.90;;;;;;5033875;28;20430;-73
2023/06/09 01:21:51;;;;;;;15.40;7.40;;;15.40;99.90;;;;;;5033464;28;20429;-72
2023/06/09 01:24:32;;;;;;;15.20;8.07;;;15.40;99.90;;;;;;5032234;28;20443;-73
2023/06/09 01:27:05;;;;;;;13.73;7.60;;;15.30;99.90;;;;;;5033536;28;20508;-73
2023/06/09 01:29:35;;;;;;;13.73;7.47;;;15.30;99.90;;;;;;5032175;28;20557;-72
2023/06/09 01:32:05;;;;;;;14.30;8.10;;;15.20;99.90;;;;;;5032245;28;20435;-73
2023/06/09 01:34:34;;;;;;;12.37;7.87;;;15.20;99.90;;;;;;5033549;28;20441;-75
2023/06/09 01:37:03;;;;;;;16.60;8.17;;;15.20;99.90;;;;;;5032232;28;20992;-73
2023/06/09 01:39:32;;;;;;;15.23;8.03;;;15.20;99.90;;;;;;5032089;28;20421;-72
2023/06/09 01:42:02;;;;;;;14.60;8.97;;;15.10;99.90;;;;;;5032183;28;20428;-73
2023/06/09 01:44:30;;;;;;;14.30;9.73;;;15.10;99.90;;;;;;5033433;28;20412;-73
2023/06/09 01:46:58;;;;;;;15.70;7.60;;;15.10;99.90;;;;;;5031780;28;20467;-73
2023/06/09 01:49:32;;;;;;;14.30;8.70;;;15.00;99.90;;;;;;5031838;28;20549;-73
2023/06/09 01:52:09;;;;;;;12.63;8.20;;;15.00;99.90;;;;;;5031836;28;20413;-73
2023/06/09 01:54:42;;;;;;;13.60;8.03;;;15.00;99.90;;;;;;5031618;28;20473;-73
2023/06/09 01:57:18;;;;;;;12.60;7.50;;;15.00;99.90;;;;;;5031787;28;20449;-73
2023/06/09 01:59:52;;;;;;;13.00;8.73;;;15.00;99.90;;;;;;5031806;28;20417;-73
2023/06/09 02:02:25;;;;;;;13.97;7.87;;;14.90;99.90;;;;;;5031813;28;20447;-72
2023/06/09 02:04:56;;;;;;;14.27;8.17;;;14.90;99.90;;;;;;5031768;28;20435;-73
2023/06/09 02:07:24;;;;;;;15.53;8.10;;;14.90;99.90;;;;;;5031696;28;20467;-73
2023/06/09 02:09:54;;;;;;;14.20;8.97;;;14.90;99.90;;;;;;5031678;28;20483;-73
2023/06/09 02:12:30;;;;;;;11.30;7.40;;;14.90;99.90;;;;;;5031672;28;20436;-73
2023/06/09 02:14:59;;;;;;;18.00;8.73;;;14.90;99.90;;;;;;5031546;28;20470;-73
2023/06/09 02:17:27;;;;;;;15.83;8.10;;;14.90;99.90;;;;;;5031505;28;20857;-73
2023/06/09 02:19:56;;;;;;;22.40;8.80;;;14.80;99.90;;;;;;5032830;28;20433;-73
2023/06/09 02:22:25;;;;;;;13.50;8.20;;;14.80;99.90;;;;;;5036239;28;20955;-73
2023/06/09 02:24:53;;;;;;;12.70;8.30;;;14.80;99.90;;;;;;5037348;28;20809;-73
2023/06/09 02:27:23;;;;;;;16.70;8.43;;;14.80;99.90;;;;;;5035336;28;20470;-73
2023/06/09 02:29:52;;;;;;;13.20;8.37;;;14.80;99.90;;;;;;5035355;28;20429;-73
2023/06/09 02:32:20;;;;;;;15.23;8.30;;;14.80;99.90;;;;;;5035381;28;20946;-72
2023/06/09 02:34:48;;;;;;;15.27;8.80;;;14.80;99.90;;;;;;5036609;28;20536;-73
2023/06/09 02:37:17;;;;;;;17.80;7.90;;;14.70;99.90;;;;;;5035227;28;20451;-73
2023/06/09 02:39:45;;;;;;;14.03;8.47;;;14.70;99.90;;;;;;5035259;28;20537;-73
2023/06/09 02:42:14;;;;;;;15.30;8.20;;;14.70;99.90;;;;;;5036518;28;20488;-72
2023/06/09 02:44:48;;;;;;;12.57;8.50;;;14.70;99.90;;;;;;5035143;28;20414;-73
2023/06/09 02:47:17;;;;;;;14.03;8.33;;;14.60;99.90;;;;;;5035099;28;20441;-73
2023/06/09 02:49:45;;;;;;;14.13;9.40;;;14.70;99.90;;;;;;5034990;28;21012;-73
2023/06/09 02:52:13;;;;;;;12.90;7.70;;;14.60;99.90;;;;;;5035079;28;20424;-74
2023/06/09 02:54:43;;;;;;;11.53;8.07;;;14.60;99.90;;;;;;5035006;28;20445;-74
2023/06/09 02:57:13;;;;;;;14.63;8.90;;;14.60;99.90;;;;;;5034972;28;20883;-73
2023/06/09 02:59:45;;;;;;;12.47;8.17;;;14.60;99.90;;;;;;5034989;28;20446;-73
2023/06/09 03:02:15;;;;;;;12.60;9.07;;;14.50;99.90;;;;;;5034646;28;20529;-73
2023/06/09 03:04:45;;;;;;;15.93;9.70;;;14.50;99.90;;;;;;5034571;28;20445;-73
2023/06/09 03:07:14;;;;;;;18.07;10.30;;;14.50;99.90;;;;;;5034443;28;20437;-73
2023/06/09 03:09:43;;;;;;;15.43;9.37;;;14.50;99.90;;;;;;5035039;28;20426;-73
2023/06/09 03:12:12;;;;;;;12.77;10.33;;;14.50;99.90;;;;;;5034633;28;20447;-73
2023/06/09 03:14:40;;;;;;;12.53;8.87;;;14.50;99.90;;;;;;5034821;28;20451;-73
2023/06/09 03:17:10;;;;;;;16.37;11.53;;;14.40;99.90;;;;;;5034458;28;20433;-73
2023/06/09 03:19:40;;;;;;;15.70;11.23;;;14.40;99.90;;;;;;5034603;28;20490;-73
2023/06/09 03:22:08;;;;;;;21.07;13.53;;;14.40;99.90;;;;;;5034423;28;20981;-73
2023/06/09 03:24:39;;;;;;;14.30;9.60;;;14.40;99.90;;;;;;5034364;28;20445;-73
2023/06/09 03:27:07;;;;;;;13.90;9.87;;;14.40;99.90;;;;;;5034313;28;20472;-73
2023/06/09 03:29:36;;;;;;;15.63;10.07;;;14.40;99.90;;;;;;5034496;28;21025;-73
2023/06/09 03:32:05;;;;;;;21.00;11.43;;;14.40;99.90;;;;;;5033896;28;20465;-73
2023/06/09 03:34:35;;;;;;;14.17;10.30;;;14.40;99.90;;;;;;5035834;28;20439;-73
2023/06/09 03:37:05;;;;;;;16.77;10.33;;;14.30;99.90;;;;;;5034198;28;20461;-73
2023/06/09 03:39:33;;;;;;;14.33;9.83;;;14.30;99.90;;;;;;5034521;28;20443;-73
2023/06/09 03:42:02;;;;;;;15.80;10.47;;;14.40;99.90;;;;;;5034270;28;20459;-73
2023/06/09 03:44:30;;;;;;;16.47;10.57;;;14.30;99.90;;;;;;5034191;28;20513;-73
2023/06/09 03:47:01;;;;;;;15.80;10.13;;;14.30;99.90;;;;;;5035400;28;20498;-73
2023/06/09 03:49:29;;;;;;;20.30;9.70;;;14.30;99.90;;;;;;5034111;28;20447;-74
2023/06/09 03:51:58;;;;;;;14.07;9.23;;;14.30;99.90;;;;;;5034213;28;20835;-74
2023/06/09 03:54:27;;;;;;;15.40;9.97;;;14.30;99.90;;;;;;5034132;28;20500;-74
2023/06/09 03:56:56;;;;;;;13.50;9.90;;;14.30;99.90;;;;;;5033931;28;21021;-74
2023/06/09 03:59:24;;;;;;;14.37;9.53;;;14.40;99.90;;;;;;5034790;28;20493;-74
2023/06/09 04:01:53;;;;;;;14.30;10.60;;;14.30;99.90;;;;;;5035234;28;20927;-74
2023/06/09 04:04:21;;;;;;;17.50;10.20;;;14.30;99.90;;;;;;5033784;28;20458;-74
2023/06/09 04:06:50;;;;;;;19.30;10.13;;;14.30;99.90;;;;;;5033745;28;20463;-74
2023/06/09 04:09:23;;;;;;;14.30;9.50;;;14.30;99.90;;;;;;5034622;28;20447;-74
2023/06/09 04:11:51;;;;;;;14.13;9.57;;;14.30;99.90;;;;;;5033640;28;21054;-74
2023/06/09 04:14:19;;;;;;;17.93;10.10;;;14.30;99.90;;;;;;5033690;28;20462;-74
2023/06/09 04:16:50;;;;;;;17.90;10.00;;;14.30;99.90;;;;;;5033398;28;20490;-74
2023/06/09 04:19:18;;;;;;;16.77;10.80;;;14.30;99.90;;;;;;5033243;28;20439;-74
2023/06/09 04:21:47;;;;;;;20.23;10.57;;;14.30;99.90;;;;;;5033228;28;20538;-74
2023/06/09 04:24:15;;;;;;;15.00;9.53;;;14.40;99.90;;;;;;5033402;28;20439;-75
2023/06/09 04:26:48;;;;;;;18.83;10.80;;;14.40;99.90;;;;;;5033172;28;20444;-74
2023/06/09 04:29:17;;;;;;;13.67;9.63;;;14.40;99.90;;;;;;5033125;28;20447;-75
2023/06/09 04:31:46;;;;;;;15.33;10.50;;;14.40;99.90;;;;;;5034424;28;20497;-75
2023/06/09 04:34:15;;;;;;;15.03;10.10;;;14.50;99.90;;;;;;5033058;28;20934;-74
2023/06/09 04:36:46;;;;;;;16.80;10.40;;;14.50;99.90;;;;;;5032998;28;20474;-74
2023/06/09 04:39:17;;;;;;;16.53;10.37;;;14.50;99.90;;;;;;5033233;28;20502;-74
2023/06/09 04:41:48;;;;;;;15.50;10.90;;;14.60;99.90;;;;;;5033718;28;20471;-74
2023/06/09 04:44:17;;;;;;;16.27;9.07;;;14.60;99.90;;;;;;5032283;28;20856;-74
2023/06/09 04:46:46;;;;;;;14.93;9.90;;;14.60;99.90;;;;;;5032825;28;20463;-74
2023/06/09 04:49:15;;;;;;;14.97;10.10;;;14.70;99.90;;;;;;5032751;28;20421;-74
2023/06/09 04:51:48;;;;;;;17.50;10.03;;;14.70;99.90;;;;;;5032764;28;20447;-74
2023/06/09 04:54:28;;;;;;;15.50;9.90;;;14.70;99.90;;;;;;5032752;28;20530;-74
2023/06/09 04:57:03;;;;;;;14.70;10.77;;;14.80;99.90;;;;;;5033118;28;20482;-74
2023/06/09 04:59:32;;;;;;;20.40;11.17;;;14.80;99.90;;;;;;5033076;28;20439;-75
2023/06/09 05:02:02;;;;;;;18.17;10.50;;;14.80;99.90;;;;;;5032534;28;20942;-75
2023/06/09 05:04:31;;;;;;;19.90;11.00;;;14.80;99.90;;;;;;5032587;28;20483;-75
2023/06/09 05:07:00;;;;;;;17.27;10.17;;;14.80;99.90;;;;;;5032518;28;20433;-75
2023/06/09 05:09:29;;;;;;;17.93;11.40;;;14.90;99.90;;;;;;5032548;28;20489;-75
2023/06/09 05:11:58;;;;;;;19.57;11.30;;;14.90;99.90;;;;;;5032530;28;20439;-75
2023/06/09 05:14:28;;;;;;;16.57;10.57;;;15.00;99.90;;;;;;5033224;28;20425;-75
2023/06/09 05:17:02;;;;;;;25.33;11.03;;;15.00;99.90;;;;;;5033037;28;20483;-74
2023/06/09 05:19:30;;;;;;;20.73;10.70;;;15.10;99.90;;;;;;5032331;28;20424;-75
2023/06/09 05:21:58;;;;;;;17.13;9.83;;;15.10;99.90;;;;;;5032398;28;20453;-75
2023/06/09 05:24:27;;;;;;;19.50;11.10;;;15.20;99.90;;;;;;5032319;28;20422;-75
2023/06/09 05:26:55;;;;;;;16.80;9.90;;;15.20;99.90;;;;;;5033645;28;20442;-73
2023/06/09 05:29:24;;;;;;;19.53;11.60;;;15.30;99.90;;;;;;5031978;28;20975;-72
2023/06/09 05:31:54;;;;;;;18.23;10.83;;;15.40;99.90;;;;;;5033424;28;20436;-72
2023/06/09 05:34:23;;;;;;;14.87;10.30;;;15.50;99.90;;;;;;5032193;28;20406;-73
2023/06/09 05:36:51;;;;;;;18.13;11.17;;;15.60;99.90;;;;;;5031995;28;20486;-73
2023/06/09 05:39:19;;;;;;;17.90;10.43;;;15.70;99.90;;;;;;5032241;28;20538;-73
2023/06/09 05:41:48;;;;;;;15.53;10.60;;;15.80;99.90;;;;;;5032188;28;20904;-73
2023/06/09 05:44:16;;;;;;;15.90;8.43;;;16.00;99.90;;;;;;5033469;28;20431;-73
2023/06/09 05:46:45;;;;;;;15.47;9.27;;;16.10;99.90;;;;;;5033711;28;20436;-74
2023/06/09 05:49:14;;;;;;;16.00;10.33;;;16.30;99.90;;;;;;5033577;28;20410;-74
2023/06/09 05:51:42;;;;;;;15.07;10.33;;;16.50;99.90;;;;;;5032160;28;20421;-73
2023/06/09 05:54:10;;;;;;;18.37;7.70;;;16.70;99.90;;;;;;5033294;28;20406;-74
2023/06/09 05:56:38;;;;;;;14.53;10.00;;;16.90;99.90;;;;;;5032860;28;20577;-74
2023/06/09 05:59:09;;;;;;;16.27;9.53;;;17.10;99.90;;;;;;5033407;28;20947;-74
2023/06/09 06:01:38;;;;;;;15.80;10.30;;;17.40;99.90;;;;;;5033572;28;20413;-74
2023/06/09 06:04:06;;;;;;;18.50;13.60;;;17.60;99.90;;;;;;5033560;28;20432;-73
2023/06/09 06:06:37;;;;;;;13.97;9.77;;;17.80;99.90;;;;;;5033465;28;20458;-73
2023/06/09 06:09:07;;;;;;;13.47;8.60;;;18.00;99.90;;;;;;5033375;28;20408;-73
2023/06/09 06:11:37;;;;;;;14.00;9.30;;;18.20;99.90;;;;;;5033269;28;20439;-73
2023/06/09 06:14:05;;;;;;;12.47;9.33;;;18.40;99.90;;;;;;5033120;28;20878;-73
2023/06/09 06:16:33;;;;;;;14.37;9.30;;;18.60;99.90;;;;;;5033034;28;20794;-73
2023/06/09 06:19:01;;;;;;;15.20;9.40;;;18.70;99.90;;;;;;5033457;28;20467;-73
2023/06/09 06:21:29;;;;;;;13.10;9.00;;;18.90;99.90;;;;;;5033180;28;20441;-73
2023/06/09 06:23:59;;;;;;;14.60;8.70;;;19.00;99.90;;;;;;5031889;28;20439;-74
2023/06/09 06:26:27;;;;;;;13.90;9.00;;;19.20;99.90;;;;;;5033019;28;20505;-73
2023/06/09 06:28:55;;;;;;;15.20;8.43;;;19.40;99.90;;;;;;5033118;28;20453;-73
2023/06/09 06:31:23;;;;;;;14.83;8.37;;;19.50;99.90;;;;;;5033081;28;20511;-73
2023/06/09 06:33:52;;;;;;;13.73;9.43;;;19.70;99.90;;;;;;5033089;28;20434;-73
2023/06/09 06:36:21;;;;;;;18.40;9.67;;;19.80;99.90;;;;;;5033362;28;20518;-73
2023/06/09 06:38:49;;;;;;;12.20;8.70;;;20.00;99.90;;;;;;5033385;28;20557;-73
2023/06/09 06:41:19;;;;;;;12.47;8.80;;;20.10;99.90;;;;;;5032074;28;20804;-73
2023/06/09 06:43:49;;;;;;;13.13;8.07;;;20.30;99.90;;;;;;5032997;28;20471;-73
2023/06/09 06:46:18;;;;;;;12.90;8.13;;;20.40;99.90;;;;;;5033022;28;20415;-73
2023/06/09 06:48:46;;;;;;;11.80;8.17;;;20.50;99.90;;;;;;5031730;28;20474;-73
2023/06/09 06:51:14;;;;;;;12.90;7.30;;;20.60;99.90;;;;;;5032969;28;20959;-72
2023/06/09 06:53:42;;;;;;;12.70;8.70;;;20.70;99.90;;;;;;5031635;28;20546;-73
2023/06/09 06:56:10;;;;;;;13.53;8.47;;;20.80;99.90;;;;;;5032952;28;20937;-73
2023/06/09 06:58:40;;;;;;;12.23;7.50;;;20.90;99.90;;;;;;5032770;28;20470;-73
2023/06/09 07:01:08;;;;;;;11.63;7.17;;;21.10;99.90;;;;;;5033176;28;20776;-73
2023/06/09 07:03:39;;;;;;;14.10;9.27;;;21.20;99.90;;;;;;5033248;28;20443;-73
2023/06/09 07:06:09;;;;;;;12.70;8.17;;;21.30;99.90;;;;;;5033656;28;20423;-73
2023/06/09 07:08:37;;;;;;;11.77;7.57;;;21.40;99.90;;;;;;5035020;28;20435;-74
2023/06/09 07:11:06;;;;;;;12.47;7.50;;;21.50;99.90;;;;;;5037360;28;20804;-74
2023/06/09 07:13:34;;;;;;;11.03;7.90;;;21.60;99.90;;;;;;5036468;28;20443;-74
2023/06/09 07:16:04;;;;;;;12.30;8.00;;;21.70;99.90;;;;;;5035097;28;20480;-74
2023/06/09 07:18:32;;;;;;;14.57;7.97;;;21.90;99.90;;;;;;5034921;28;20585;-73
2023/06/09 07:21:01;;;;;;;13.73;8.60;;;22.00;99.90;;;;;;5035300;28;20889;-74
2023/06/09 07:23:32;;;;;;;14.53;7.70;;;22.10;99.90;;;;;;5036840;28;20442;-74
2023/06/09 07:26:00;;;;;;;10.70;7.40;;;22.20;99.90;;;;;;5035526;28;20501;-74
2023/06/09 07:28:28;;;;;;;9.77;6.13;;;22.30;99.90;;;;;;5036119;28;20465;-74
2023/06/09 07:30:57;;;;;;;10.20;6.60;;;22.40;99.90;;;;;;5036632;28;20919;-74
2023/06/09 07:33:32;;;;;;;9.03;7.00;;;22.50;99.90;;;;;;5036783;28;20442;-74
2023/06/09 07:36:00;;;;;;;11.27;5.87;;;22.60;99.90;;;;;;5035282;28;20445;-74
2023/06/09 07:38:28;;;;;;;12.90;7.53;;;22.60;99.90;;;;;;5036171;28;20478;-74
2023/06/09 07:40:56;;;;;;;10.00;7.20;;;22.70;99.90;;;;;;5036368;28;20849;-74
2023/06/09 07:43:25;;;;;;;9.83;7.10;;;22.80;99.90;;;;;;5035956;28;20470;-73
2023/06/09 07:45:53;;;;;;;10.97;6.43;;;22.90;99.90;;;;;;5036204;28;20442;-74
2023/06/09 07:48:21;;;;;;;8.57;6.20;;;23.00;99.90;;;;;;5034880;28;20463;-74
2023/06/09 07:50:51;;;;;;;9.40;6.57;;;23.00;99.90;;;;;;5036047;28;20427;-75
2023/06/09 07:53:29;;;;;;;10.47;6.90;;;23.10;99.90;;;;;;5036143;28;20838;-74
2023/06/09 07:55:59;;;;;;;12.57;6.63;;;23.20;99.90;;;;;;5034603;28;20868;-74
2023/06/09 07:58:27;;;;;;;10.47;6.27;;;23.30;99.90;;;;;;5035774;28;20467;-73
2023/06/09 08:00:55;;;;;;;11.30;6.60;;;23.30;99.90;;;;;;5035840;28;20529;-74
2023/06/09 08:03:23;;;;;;;9.03;6.27;;;23.40;99.90;;;;;;5035687;28;20446;-74
2023/06/09 08:05:53;;;;;;;11.00;5.80;;;23.50;99.80;;;;;;5036153;28;20431;-74
2023/06/09 08:08:21;;;;;;;11.43;5.77;;;23.50;99.60;;;;;;5036103;28;20455;-73
2023/06/09 08:10:49;;;;;;;8.57;6.40;;;23.60;99.50;;;;;;5035859;28;20987;-74
2023/06/09 08:13:18;;;;;;;8.93;6.40;;;23.60;99.60;;;;;;5034362;28;20455;-74
2023/06/09 08:15:46;;;;;;;8.07;6.03;;;23.60;99.00;;;;;;5036134;28;20459;-74
2023/06/09 08:18:14;;;;;;;8.43;6.57;;;23.80;99.00;;;;;;5034195;28;20486;-74
2023/06/09 08:20:43;;;;;;;13.30;6.27;;;23.80;98.70;;;;;;5034124;28;20454;-74
2023/06/09 08:23:12;;;;;;;9.07;6.57;;;23.90;98.50;;;;;;5034443;28;20447;-74
2023/06/09 08:25:40;;;;;;;10.73;6.27;;;23.90;98.10;;;;;;5035696;28;20566;-75
2023/06/09 08:28:09;;;;;;;10.43;5.70;;;24.00;97.90;;;;;;5033914;28;20467;-76
2023/06/09 08:30:38;;;;;;;9.90;6.70;;;24.00;97.70;;;;;;5033894;28;20832;-75
2023/06/09 08:33:06;;;;;;;7.83;5.87;;;24.10;97.50;;;;;;5034983;28;21023;-75
2023/06/09 08:35:34;;;;;;;9.33;6.47;;;24.10;97.30;;;;;;5033734;28;20943;-75
2023/06/09 08:38:02;;;;;;;9.67;6.73;;;24.20;97.20;;;;;;5034868;28;20475;-75
2023/06/09 08:40:34;;;;;;;7.97;6.03;;;24.20;97.00;;;;;;5033810;28;20537;-75
2023/06/09 08:43:05;;;;;;;8.40;6.30;;;24.30;96.80;;;;;;5033855;28;20480;-75
2023/06/09 08:45:35;;;;;;;10.80;5.57;;;24.30;96.50;;;;;;5034818;28;20438;-75
2023/06/09 08:48:05;;;;;;;9.33;6.80;;;24.30;96.30;;;;;;5033665;28;20558;-74
2023/06/09 08:50:34;;;;;;;9.50;6.30;;;24.40;96.20;;;;;;5034893;28;20443;-75
2023/06/09 08:53:02;;;;;;;7.67;5.70;;;24.50;95.90;;;;;;5034800;28;20435;-75
2023/06/09 08:55:32;;;;;;;9.37;5.57;;;24.50;95.60;;;;;;5033633;28;20538;-74
2023/06/09 08:58:00;;;;;;;9.53;6.67;;;24.50;95.70;;;;;;5034902;28;20454;-75
2023/06/09 09:00:29;;;;;;;11.67;5.60;;;24.60;95.90;;;;;;5034902;28;20877;-75
2023/06/09 09:02:57;;;;;;;8.13;6.63;;;24.70;95.90;;;;;;5033271;28;20442;-75
2023/06/09 09:05:25;;;;;;;9.53;6.50;;;24.80;95.80;;;;;;5033581;28;20962;-76
2023/06/09 09:07:53;;;;;;;8.10;6.23;;;24.90;95.70;;;;;;5033027;28;20479;-75
2023/06/09 09:10:22;;;;;;;9.77;5.40;;;24.90;95.70;;;;;;5034216;28;20430;-75
2023/06/09 09:12:54;;;;;;;11.63;5.97;;;24.90;95.70;;;;;;5034197;28;20530;-75
2023/06/09 09:15:25;;;;;;;13.03;6.10;;;25.00;95.30;;;;;;5034751;28;20526;-76
2023/06/09 09:17:54;;;;;;;7.70;5.80;;;25.10;95.20;;;;;;5034487;28;20461;-75
2023/06/09 09:20:32;;;;;;;9.90;5.67;;;25.10;94.90;;;;;;5033062;28;20497;-75
2023/06/09 09:23:01;;;;;;;8.00;5.70;;;25.20;94.80;;;;;;5033064;28;20438;-75
2023/06/09 09:25:30;;;;;;;8.13;5.13;;;25.20;94.70;;;;;;5032768;28;20478;-75
2023/06/09 09:28:01;;;;;;;9.57;5.30;;;25.30;94.60;;;;;;5034381;28;20458;-75
2023/06/09 09:30:47;;;;;;;9.30;5.93;;;25.30;94.30;;;;;;5033519;28;20982;-76
2023/06/09 09:33:18;;;;;;;8.93;6.40;;;25.30;93.80;;;;;;5034713;28;20431;-76
2023/06/09 09:35:47;;;;;;;6.80;5.20;;;25.40;93.90;;;;;;5032724;28;20447;-75
2023/06/09 09:38:20;;;;;;;11.57;6.70;;;25.40;93.80;;;;;;5033788;28;20562;-75
2023/06/09 09:40:51;;;;;;;11.60;6.30;;;25.50;93.70;;;;;;5032726;28;20537;-75
2023/06/09 09:43:21;;;;;;;9.70;6.27;;;25.50;93.30;;;;;;5032674;28;20449;-75
2023/06/09 09:45:52;;;;;;;10.00;5.80;;;25.50;93.10;;;;;;5033904;28;20434;-75
2023/06/09 09:48:23;;;;;;;7.60;5.87;;;25.60;93.00;;;;;;5033722;28;20538;-75
2023/06/09 09:50:52;;;;;;;7.80;5.00;;;25.60;92.80;;;;;;5033619;28;20442;-75
2023/06/09 09:53:23;;;;;;;7.30;5.80;;;25.60;92.40;;;;;;5033930;28;20454;-76
2023/06/09 09:55:53;;;;;;;8.60;5.77;;;25.70;92.20;;;;;;5033985;28;20840;-76
2023/06/09 09:58:30;;;;;;;7.80;5.43;;;25.70;92.20;;;;;;5032155;28;20915;-75
2023/06/09 10:01:03;;;;;;;7.30;6.03;;;25.80;92.20;;;;;;5032364;28;20538;-76
2023/06/09 10:03:32;;;;;;;8.67;5.87;;;25.90;92.30;;;;;;5033614;28;20419;-76
2023/06/09 10:06:03;;;;;;;9.10;5.57;;;25.90;92.10;;;;;;5033535;28;20462;-76
2023/06/09 10:08:32;;;;;;;10.00;6.37;;;25.90;91.90;;;;;;5033617;28;21071;-76
2023/06/09 10:11:01;;;;;;;10.07;7.17;;;26.00;91.90;;;;;;5033811;28;20526;-76
2023/06/09 10:13:31;;;;;;;8.70;6.57;;;26.10;92.00;;;;;;5033999;28;20454;-76
2023/06/09 10:16:00;;;;;;;9.73;6.00;;;26.10;92.00;;;;;;5032493;28;20952;-77
2023/06/09 10:18:28;;;;;;;10.37;6.77;;;26.20;92.10;;;;;;5032372;28;20474;-76
2023/06/09 10:20:57;;;;;;;10.57;6.13;;;26.20;92.10;;;;;;5034034;28;20462;-75
2023/06/09 10:23:27;;;;;;;9.40;5.80;;;26.30;92.10;;;;;;5033402;28;20498;-76
2023/06/09 10:25:55;;;;;;;12.63;6.47;;;26.30;92.10;;;;;;5032271;28;20446;-76
2023/06/09 10:28:23;;;;;;;9.67;6.40;;;26.30;92.00;;;;;;5032200;28;20500;-76
2023/06/09 10:30:55;;;;;;;9.53;7.23;;;26.40;92.00;;;;;;5032651;28;20505;-76
2023/06/09 10:33:28;;;;;;;8.93;5.60;;;26.40;91.90;;;;;;5032369;28;20443;-77
2023/06/09 10:35:58;;;;;;;8.17;5.70;;;26.40;91.80;;;;;;5032270;28;20447;-77
2023/06/09 10:38:30;;;;;;;7.70;5.70;;;26.50;91.90;;;;;;5033343;28;20462;-77
2023/06/09 10:41:07;;;;;;;7.70;6.10;;;26.50;91.90;;;;;;5032038;28;20499;-77
2023/06/09 10:44:00;;;;;;;8.40;5.83;;;26.60;91.80;;;;;;5035481;28;20864;-76
2023/06/09 10:46:43;;;;;;;8.03;6.60;;;26.70;91.80;;;;;;5036930;28;20418;-76
2023/06/09 10:49:36;;;;;;;9.57;6.33;;;26.70;91.50;;;;;;5036258;28;20469;-76
2023/06/09 10:52:05;;;;;;;9.00;6.43;;;26.80;91.50;;;;;;5035838;28;20477;-76
2023/06/09 10:54:35;;;;;;;9.77;5.90;;;26.80;91.70;;;;;;5035921;28;20954;-77
2023/06/09 10:57:06;;;;;;;9.30;6.60;;;26.80;91.60;;;;;;5037366;28;20467;-76
2023/06/09 11:00:15;;;;;;;6.90;6.20;;;26.90;91.70;;;;;;5037182;28;20459;-76
2023/06/09 11:02:47;;;;;;;9.20;6.60;;;26.90;91.30;;;;;;5036815;28;20431;-77
2023/06/09 11:05:17;;;;;;;9.13;6.53;;;27.00;91.10;;;;;;5037569;28;20423;-76
2023/06/09 11:07:48;;;;;;;8.10;6.17;;;27.10;91.00;;;;;;5035489;28;20536;-76
2023/06/09 11:10:35;;;;;;;8.67;6.43;;;27.10;90.90;;;;;;5035536;28;20453;-77
2023/06/09 11:13:38;;;;;;;8.90;5.90;;;27.10;90.80;;;;;;5035690;28;20435;-77
2023/06/09 11:16:08;;;;;;;9.43;6.40;;;27.20;90.70;;;;;;5034601;28;20465;-77
2023/06/09 11:18:39;;;;;;;8.47;6.83;;;27.20;90.50;;;;;;5036849;28;20512;-76
2023/06/09 11:21:19;;;;;;;7.20;5.90;;;27.20;90.30;;;;;;5035630;28;20502;-76
2023/06/09 11:23:55;;;;;;;8.13;6.30;;;27.20;90.20;;;;;;5036948;28;20502;-76
2023/06/09 11:26:25;;;;;;;8.50;5.53;;;27.30;90.00;;;;;;5036565;28;20445;-76
2023/06/09 11:28:53;;;;;;;9.30;5.57;;;27.30;89.70;;;;;;5036736;28;20504;-77
2023/06/09 11:31:22;;;;;;;8.77;6.27;;;27.30;89.40;;;;;;5036848;28;20423;-78
2023/06/09 11:33:53;;;;;;;7.17;5.60;;;27.30;89.00;;;;;;5035062;28;20975;-77
2023/06/09 11:36:25;;;;;;;9.17;5.37;;;27.40;88.30;;;;;;5034991;28;20447;-77
2023/06/09 11:38:58;;;;;;;7.93;5.57;;;27.50;88.20;;;;;;5037063;28;20885;-77
2023/06/09 11:41:28;;;;;;;7.67;5.60;;;27.50;87.90;;;;;;5034960;28;20846;-77
2023/06/09 11:43:57;;;;;;;7.47;5.43;;;27.60;87.90;;;;;;5035917;28;20435;-76
2023/06/09 11:46:25;;;;;;;8.23;5.70;;;27.60;87.50;;;;;;5035732;28;20470;-77
2023/06/09 11:49:04;;;;;;;8.40;6.43;;;27.60;87.20;;;;;;5034531;28;20852;-76
2023/06/09 11:51:56;;;;;;;9.87;5.60;;;27.60;86.90;;;;;;5036034;28;20415;-76
2023/06/09 11:54:39;;;;;;;8.53;5.20;;;27.60;87.10;;;;;;5035816;28;20917;-76
2023/06/09 11:57:07;;;;;;;7.33;5.40;;;27.60;87.20;;;;;;5035888;28;20573;-76
2023/06/09 11:59:35;;;;;;;9.07;6.00;;;27.60;86.80;;;;;;5035819;28;21015;-76
2023/06/09 12:02:16;;;;;;;7.27;5.90;;;27.70;86.30;;;;;;5034352;28;20497;-76
2023/06/09 12:04:48;;;;;;;8.10;5.73;;;27.70;85.60;;;;;;5034243;28;20439;-77
2023/06/09 12:07:18;;;;;;;8.97;5.30;;;27.70;85.20;;;;;;5035963;28;20462;-77
2023/06/09 12:09:55;;;;;;;7.20;5.23;;;27.80;84.50;;;;;;5035656;28;20470;-77
2023/06/09 12:12:24;;;;;;;9.60;4.97;;;27.90;83.80;;;;;;5034407;28;20465;-77
2023/06/09 12:14:52;;;;;;;7.00;5.03;;;27.90;83.40;;;;;;5035519;28;20994;-77
2023/06/09 12:17:21;;;;;;;6.37;5.07;;;27.90;82.70;;;;;;5035526;28;20465;-77
2023/06/09 12:19:51;;;;;;;8.00;5.27;;;28.00;82.10;;;;;;5035335;28;20932;-77
2023/06/09 12:22:22;;;;;;;5.90;5.13;;;28.00;81.90;;;;;;5035309;28;20431;-77
2023/06/09 12:24:51;;;;;;;7.30;5.60;;;28.10;81.70;;;;;;5034097;28;20454;-77
2023/06/09 12:27:21;;;;;;;8.07;5.90;;;28.10;81.50;;;;;;5034051;28;20466;-77
2023/06/09 12:29:49;;;;;;;6.93;5.00;;;28.10;80.90;;;;;;5035204;28;20860;-77
2023/06/09 12:32:23;;;;;;;7.60;5.47;;;28.10;80.60;;;;;;5035077;28;20431;-77
2023/06/09 12:35:00;;;;;;;7.00;5.50;;;28.10;80.10;;;;;;5033834;28;20439;-76
2023/06/09 12:37:30;;;;;;;6.17;5.07;;;28.10;79.70;;;;;;5035475;28;20451;-79
2023/06/09 12:40:05;;;;;;;6.77;5.40;;;28.10;79.70;;;;;;5035317;28;20423;-76
2023/06/09 12:42:46;;;;;;;6.80;5.43;;;28.20;79.10;;;;;;5035712;28;20789;-76
2023/06/09 12:45:15;;;;;;;7.80;5.23;;;28.20;78.60;;;;;;5034173;28;20439;-77
2023/06/09 12:47:48;;;;;;;6.77;5.20;;;28.20;78.20;;;;;;5034907;28;20509;-76
2023/06/09 12:50:17;;;;;;;7.20;5.53;;;28.20;77.60;;;;;;5035057;28;20416;-77
2023/06/09 12:52:46;;;;;;;6.63;5.47;;;28.20;77.70;;;;;;5034925;28;20463;-76
2023/06/09 12:55:16;;;;;;;6.87;5.43;;;28.20;77.30;;;;;;5033205;28;20493;-76